ZBAA/PEK METAR and TAF weather

Enter ICAO airport designator
Station Type Date Time Source
ZBAA METAR 2021/08/04 19:00 UTC NOAA

ZBAA 041900Z 36003MPS 330V040 CAVOK 24/21 Q1003 NOSIG


Station Type Date Time Source
ZBAA Decoded METAR 2021/08/04 19:00 UTC NOAA

Beijing, China (ZBAA) 39-56N 116-17E 55M
Aug 04, 2021 - 03:00 PM EDT / 2021.08.04 1900 UTC
Wind: from the N (360 degrees) at 7 MPH (6 KT) (direction variable):0
Visibility: greater than 7 mile(s):0
Temperature: 75 F (24 C)
Dew Point: 69 F (21 C)
Relative Humidity: 83%
Pressure (altimeter): 29.62 in. Hg (1003 hPa)
ob: ZBAA 041900Z 36003MPS 330V040 CAVOK 24/21 Q1003 NOSIG
cycle: 19

Station Type Date Time Source
ZBAA TAF 2021/08/04 18:03 UTC NOAA

TAF TAF ZBAA 041501Z 0418/0518 18004MPS 5000 BR NSC TX31/0507Z TN23/0421Z
TEMPO 0418/0422 2800 -SHRA FEW040CB
TEMPO 0508/0512 -TSRA FEW040CB

Example: see airport list